createdAt,value
2022-10-05T00:00:59.545Z,69.11
2022-10-05T00:03:33.552Z,69.34
2022-10-05T00:06:02.294Z,70.55
2022-10-05T00:08:34.048Z,70.55
2022-10-05T00:11:02.121Z,69.47
2022-10-05T00:13:32.240Z,70.11
2022-10-05T00:16:10.365Z,70.10
2022-10-05T00:18:39.522Z,70.59
2022-10-05T00:21:19.472Z,70.46
2022-10-05T00:23:47.646Z,70.13
2022-10-05T00:26:19.745Z,70.90
2022-10-05T00:28:47.611Z,70.42
2022-10-05T00:31:19.997Z,70.30
2022-10-05T00:33:48.884Z,70.63
2022-10-05T00:36:16.985Z,70.46
2022-10-05T00:38:46.466Z,69.59
2022-10-05T00:41:21.797Z,70.44
2022-10-05T00:44:09.443Z,70.97
2022-10-05T00:46:51.884Z,70.63
2022-10-05T00:49:35.252Z,71.13
2022-10-05T00:52:20.138Z,70.87
2022-10-05T00:54:58.104Z,71.07
2022-10-05T00:57:41.508Z,70.76
2022-10-05T01:00:13.505Z,71.94
2022-10-05T01:02:53.081Z,71.77
2022-10-05T01:05:34.597Z,71.82
2022-10-05T01:08:13.760Z,71.06
2022-10-05T01:10:49.805Z,72.12
2022-10-05T01:13:28.721Z,71.45
2022-10-05T01:16:08.310Z,71.67
2022-10-05T01:18:43.645Z,71.68
2022-10-05T01:21:18.618Z,70.98
2022-10-05T01:24:22.636Z,72.25
2022-10-05T01:27:17.017Z,72.09
2022-10-05T01:29:50.740Z,71.31
2022-10-05T01:32:25.921Z,71.12
2022-10-05T01:35:02.205Z,71.24
2022-10-05T01:37:40.332Z,72.30
2022-10-05T01:40:13.042Z,72.32
2022-10-05T01:42:57.256Z,70.86
2022-10-05T01:45:36.442Z,70.83
2022-10-05T01:48:10.269Z,71.04
2022-10-05T01:50:48.608Z,70.96
2022-10-05T01:53:26.960Z,71.14
2022-10-05T01:56:03.512Z,71.06
2022-10-05T01:58:42.765Z,71.19
2022-10-05T02:01:21.984Z,71.43
2022-10-05T02:03:54.203Z,71.36
2022-10-05T02:06:26.041Z,71.20
2022-10-05T02:08:59.669Z,72.55
2022-10-05T02:11:27.599Z,71.15
2022-10-05T02:14:00.762Z,71.20
2022-10-05T02:16:36.027Z,72.06
2022-10-05T02:19:14.528Z,72.41
2022-10-05T02:21:47.564Z,71.77
2022-10-05T02:24:22.877Z,71.92
2022-10-05T02:26:53.432Z,71.93
2022-10-05T02:29:24.762Z,72.53
2022-10-05T02:31:59.215Z,73.19
2022-10-05T02:34:28.160Z,72.28
2022-10-05T02:37:18.008Z,72.74
2022-10-05T02:40:01.886Z,72.11
2022-10-05T02:42:38.042Z,72.08
2022-10-05T02:45:17.114Z,72.90
2022-10-05T02:47:54.597Z,73.29
2022-10-05T02:50:30.357Z,72.31
2022-10-05T02:53:11.277Z,72.32
2022-10-05T02:55:48.107Z,72.10
2022-10-05T02:58:21.316Z,72.67
2022-10-05T03:00:56.509Z,72.12
2022-10-05T03:03:33.491Z,73.10
2022-10-05T03:06:03.523Z,72.89
2022-10-05T03:08:36.947Z,72.20
2022-10-05T03:11:13.347Z,73.41
2022-10-05T03:13:49.491Z,73.00
2022-10-05T03:16:44.533Z,72.75
2022-10-05T03:19:28.706Z,72.89
2022-10-05T03:22:02.931Z,73.25
2022-10-05T03:24:45.949Z,71.86
2022-10-05T03:27:26.756Z,72.08
2022-10-05T03:30:03.458Z,72.99
2022-10-05T03:32:44.642Z,71.74
2022-10-05T03:35:24.175Z,72.78
2022-10-05T03:38:00.186Z,72.73
2022-10-05T03:40:35.815Z,72.43
2022-10-05T03:43:19.221Z,72.03
2022-10-05T03:45:55.362Z,71.25
2022-10-05T03:48:30.124Z,71.46
2022-10-05T03:51:05.935Z,70.51
2022-10-05T03:53:42.049Z,70.92
2022-10-05T03:56:15.373Z,70.89
2022-10-05T03:58:51.278Z,71.56
2022-10-05T04:01:24.166Z,71.34
2022-10-05T04:03:58.220Z,71.58
2022-10-05T04:06:30.494Z,72.05
2022-10-05T04:09:04.203Z,72.91
2022-10-05T04:11:37.945Z,71.82
2022-10-05T04:14:11.313Z,72.58
2022-10-05T04:16:45.350Z,71.72
2022-10-05T04:19:20.629Z,72.70
2022-10-05T04:21:53.224Z,72.47
2022-10-05T04:24:28.216Z,71.73
2022-10-05T04:26:59.782Z,71.48
2022-10-05T04:29:35.657Z,71.81
2022-10-05T04:32:17.588Z,71.48
2022-10-05T04:34:59.122Z,71.59
2022-10-05T04:37:43.229Z,71.64
2022-10-05T04:40:28.076Z,71.73
2022-10-05T04:43:08.153Z,71.71
2022-10-05T04:45:50.511Z,71.45
2022-10-05T04:48:35.606Z,72.33
2022-10-05T04:51:18.170Z,71.94
2022-10-05T04:53:55.346Z,72.01
2022-10-05T04:56:35.155Z,72.55
2022-10-05T04:59:24.836Z,72.41
2022-10-05T05:02:06.739Z,72.10
2022-10-05T05:04:55.092Z,72.09
2022-10-05T05:07:41.070Z,71.82
2022-10-05T05:10:39.535Z,72.21
2022-10-05T05:13:28.952Z,71.73
2022-10-05T05:16:04.633Z,71.95
2022-10-05T05:18:59.078Z,71.97
2022-10-05T05:21:38.732Z,72.85
2022-10-05T05:24:12.523Z,72.45
2022-10-05T05:26:50.739Z,72.90
2022-10-05T05:29:24.502Z,71.71
2022-10-05T05:31:57.792Z,71.81
2022-10-05T05:34:45.338Z,72.41
2022-10-05T05:37:21.523Z,72.09
2022-10-05T05:40:03.145Z,73.18
2022-10-05T05:42:43.674Z,72.78
2022-10-05T05:45:18.730Z,72.69
2022-10-05T05:47:53.799Z,71.95
2022-10-05T05:50:40.330Z,71.11
2022-10-05T05:53:17.022Z,72.18
2022-10-05T05:55:49.509Z,71.65
2022-10-05T05:58:24.871Z,71.91
2022-10-05T06:00:59.145Z,70.28
2022-10-05T06:03:35.579Z,70.72
2022-10-05T06:06:07.324Z,70.76
2022-10-05T06:08:40.822Z,71.28
2022-10-05T06:11:28.986Z,70.47
2022-10-05T06:14:02.701Z,71.15
2022-10-05T06:16:38.390Z,70.64
2022-10-05T06:19:11.942Z,71.26
2022-10-05T06:21:45.592Z,71.63
2022-10-05T06:24:18.779Z,70.43
2022-10-05T06:27:13.189Z,71.20
2022-10-05T06:29:58.157Z,70.64
2022-10-05T06:32:30.655Z,69.90
2022-10-05T06:35:07.912Z,69.69
2022-10-05T06:37:56.704Z,70.14
2022-10-05T06:40:36.935Z,69.67
2022-10-05T06:43:26.919Z,70.97
2022-10-05T06:46:22.881Z,69.49
2022-10-05T06:49:21.105Z,69.28
2022-10-05T06:52:15.380Z,70.15
2022-10-05T06:54:56.700Z,69.56
2022-10-05T06:57:45.458Z,69.83
2022-10-05T07:00:20.205Z,69.32
2022-10-05T07:02:58.632Z,69.21
2022-10-05T07:05:42.945Z,68.50
2022-10-05T07:08:14.597Z,69.53
2022-10-05T07:10:53.565Z,68.87
2022-10-05T07:13:47.511Z,69.78
2022-10-05T07:16:25.601Z,69.53
2022-10-05T07:19:10.259Z,70.08
2022-10-05T07:21:46.856Z,68.91
2022-10-05T07:24:29.260Z,68.58
2022-10-05T07:27:09.212Z,69.18
2022-10-05T07:29:49.037Z,68.65
2022-10-05T07:32:28.817Z,67.81
2022-10-05T07:35:09.157Z,67.64
2022-10-05T07:37:57.825Z,68.17
2022-10-05T07:40:37.815Z,66.94
2022-10-05T07:43:22.927Z,67.30
2022-10-05T07:45:58.291Z,66.62
2022-10-05T07:48:33.172Z,67.33
2022-10-05T07:51:08.405Z,66.73
2022-10-05T07:53:39.208Z,66.75
2022-10-05T07:56:14.750Z,66.93
2022-10-05T07:58:47.822Z,65.59
2022-10-05T08:01:19.263Z,65.90
2022-10-05T08:03:53.666Z,65.40
2022-10-05T08:06:49.172Z,64.22
2022-10-05T08:09:34.053Z,64.92
2022-10-05T08:12:15.048Z,66.00
2022-10-05T08:14:52.446Z,65.74
2022-10-05T08:17:27.465Z,64.79
2022-10-05T08:20:04.168Z,63.42
2022-10-05T08:22:51.690Z,64.56
2022-10-05T08:25:25.641Z,64.97
2022-10-05T08:28:01.129Z,63.74
2022-10-05T08:30:33.307Z,64.26
2022-10-05T08:33:09.592Z,64.63
2022-10-05T08:35:43.800Z,64.45
2022-10-05T08:38:16.644Z,64.47
2022-10-05T08:41:28.167Z,63.13
2022-10-05T08:44:31.890Z,64.25
2022-10-05T08:47:17.497Z,63.00
2022-10-05T08:50:15.996Z,63.23
2022-10-05T08:53:17.409Z,63.33
2022-10-05T08:56:00.288Z,62.81
2022-10-05T08:58:44.465Z,61.87
2022-10-05T09:01:21.780Z,62.94
2022-10-05T09:04:23.604Z,62.98
2022-10-05T09:07:11.560Z,61.13
2022-10-05T09:10:08.304Z,62.97
2022-10-05T09:13:03.573Z,62.01
2022-10-05T09:15:50.266Z,63.69
2022-10-05T09:18:46.617Z,62.66
2022-10-05T09:21:23.434Z,62.30
2022-10-05T09:24:06.591Z,62.94
2022-10-05T09:26:59.323Z,61.88
2022-10-05T09:30:04.145Z,62.28
2022-10-05T09:32:47.789Z,62.90
2022-10-05T09:35:22.189Z,60.58
2022-10-05T09:38:10.075Z,60.56
2022-10-05T09:41:13.344Z,62.08
2022-10-05T09:44:11.043Z,60.27
2022-10-05T09:47:04.090Z,60.04
2022-10-05T09:49:59.509Z,60.35
2022-10-05T09:52:54.546Z,61.38
2022-10-05T09:55:47.130Z,60.85
2022-10-05T09:58:50.766Z,60.97
2022-10-05T10:01:42.214Z,61.24
2022-10-05T10:04:51.605Z,59.68
2022-10-05T10:07:48.626Z,60.87
2022-10-05T10:10:45.087Z,60.50
2022-10-05T10:13:29.967Z,60.72
2022-10-05T10:16:09.866Z,61.15
2022-10-05T10:19:09.604Z,60.34
2022-10-05T10:22:34.141Z,60.44
2022-10-05T10:25:34.743Z,59.25
2022-10-05T10:28:32.532Z,60.65
2022-10-05T10:31:18.390Z,61.21
2022-10-05T10:34:09.162Z,60.48
2022-10-05T10:36:59.378Z,60.93
2022-10-05T10:39:41.601Z,60.17
2022-10-05T10:42:32.966Z,59.69
2022-10-05T10:45:20.625Z,58.99
2022-10-05T10:47:53.046Z,60.01
2022-10-05T10:51:05.654Z,61.22
2022-10-05T10:53:49.473Z,58.39
2022-10-05T10:57:05.090Z,56.40
2022-10-05T10:59:58.252Z,56.18
2022-10-05T11:02:57.375Z,56.10
2022-10-05T11:05:52.844Z,55.82
2022-10-05T11:08:51.724Z,53.23
2022-10-05T11:12:05.597Z,53.15
2022-10-05T11:15:01.455Z,52.93
2022-10-05T11:17:51.087Z,51.64
2022-10-05T11:20:39.482Z,50.45
2022-10-05T11:23:37.934Z,51.84
2022-10-05T11:26:32.507Z,52.74
2022-10-05T11:29:31.327Z,52.11
2022-10-05T11:32:20.068Z,52.68
2022-10-05T11:35:19.989Z,53.03
2022-10-05T11:38:16.857Z,53.56
2022-10-05T11:41:26.289Z,52.62
2022-10-05T11:44:15.430Z,53.81
2022-10-05T11:46:54.500Z,54.80
2022-10-05T11:49:36.465Z,56.89
2022-10-05T11:52:12.099Z,55.49
2022-10-05T11:55:16.907Z,57.26
2022-10-05T11:57:51.367Z,57.04
2022-10-05T12:00:21.988Z,55.35
2022-10-05T12:03:19.235Z,56.31
2022-10-05T12:06:02.002Z,55.78
2022-10-05T12:08:37.967Z,55.68
2022-10-05T12:11:16.133Z,55.63
2022-10-05T12:13:52.917Z,56.19
2022-10-05T12:16:26.967Z,54.88
2022-10-05T12:19:00.423Z,54.87
2022-10-05T12:21:38.016Z,54.39
2022-10-05T12:24:15.080Z,52.87
2022-10-05T12:26:48.807Z,52.75
2022-10-05T12:29:24.180Z,54.03
2022-10-05T12:31:59.852Z,53.23
2022-10-05T12:34:41.934Z,54.31
2022-10-05T12:37:18.180Z,53.89
2022-10-05T12:39:51.733Z,53.80
2022-10-05T12:42:28.368Z,51.71
2022-10-05T12:45:18.046Z,54.10
2022-10-05T12:48:12.160Z,53.86
2022-10-05T12:50:43.153Z,51.67
2022-10-05T12:53:31.470Z,52.66
2022-10-05T12:56:05.158Z,51.62
2022-10-05T12:58:41.203Z,52.72
2022-10-05T13:01:25.656Z,52.43
2022-10-05T13:04:00.590Z,52.36
2022-10-05T13:06:38.170Z,51.09
2022-10-05T13:09:13.844Z,53.46
2022-10-05T13:11:47.299Z,53.08
2022-10-05T13:14:24.389Z,51.42
2022-10-05T13:16:59.696Z,52.26
2022-10-05T13:19:39.305Z,52.15
2022-10-05T13:22:27.136Z,52.49
2022-10-05T13:25:06.971Z,53.75
2022-10-05T13:27:38.125Z,52.35
2022-10-05T13:30:14.452Z,52.45
2022-10-05T13:32:47.942Z,52.07
2022-10-05T13:35:35.908Z,51.26
2022-10-05T13:38:12.555Z,51.64
2022-10-05T13:40:50.645Z,51.77
2022-10-05T13:43:27.025Z,51.02
2022-10-05T13:45:57.423Z,50.70
2022-10-05T13:48:46.390Z,51.51
2022-10-05T13:51:20.553Z,52.51
2022-10-05T13:53:53.834Z,51.40
2022-10-05T13:56:23.525Z,51.08
2022-10-05T13:58:56.069Z,51.53
2022-10-05T14:01:35.829Z,51.81
2022-10-05T14:04:16.873Z,52.57
2022-10-05T14:06:45.940Z,52.16
2022-10-05T14:09:27.364Z,51.72
2022-10-05T14:12:12.950Z,51.88
2022-10-05T14:14:47.067Z,51.62
2022-10-05T14:17:17.300Z,50.83
2022-10-05T14:19:47.257Z,51.62
2022-10-05T14:22:22.364Z,52.77
2022-10-05T14:24:53.224Z,52.38
2022-10-05T14:27:26.581Z,51.93
2022-10-05T14:29:57.150Z,53.00
2022-10-05T14:32:27.056Z,54.41
2022-10-05T14:35:06.153Z,52.71
2022-10-05T14:37:45.356Z,53.66
2022-10-05T14:40:31.574Z,54.54
2022-10-05T14:43:03.123Z,53.97
2022-10-05T14:45:32.616Z,54.22
2022-10-05T14:48:10.873Z,53.50
2022-10-05T14:50:53.269Z,54.00
2022-10-05T14:53:24.553Z,54.07
2022-10-05T14:56:20.785Z,55.26
2022-10-05T14:59:23.146Z,55.07
2022-10-05T15:01:58.851Z,54.10
2022-10-05T15:04:42.883Z,54.79
2022-10-05T15:07:22.711Z,53.46
2022-10-05T15:10:01.899Z,54.64
2022-10-05T15:12:33.330Z,53.87
2022-10-05T15:15:06.397Z,54.27
2022-10-05T15:17:43.134Z,53.66
2022-10-05T15:20:21.318Z,54.20
2022-10-05T15:22:54.524Z,54.51
2022-10-05T15:25:30.556Z,54.71
2022-10-05T15:28:13.283Z,53.92
2022-10-05T15:30:48.356Z,53.65
2022-10-05T15:33:27.783Z,54.39
2022-10-05T15:36:05.341Z,54.70
2022-10-05T15:38:41.765Z,53.96
2022-10-05T15:41:15.954Z,54.34
2022-10-05T15:44:06.125Z,54.39
2022-10-05T15:46:40.401Z,54.54
2022-10-05T15:49:25.372Z,54.99
2022-10-05T15:52:03.446Z,55.40
2022-10-05T15:55:06.447Z,55.22
2022-10-05T15:57:42.308Z,55.19
2022-10-05T16:00:13.522Z,55.84
2022-10-05T16:02:51.347Z,55.93
2022-10-05T16:05:50.284Z,56.89
2022-10-05T16:08:58.590Z,57.15
2022-10-05T16:11:52.573Z,56.04
2022-10-05T16:14:33.308Z,56.06
2022-10-05T16:17:15.977Z,57.02
2022-10-05T16:19:54.517Z,56.98
2022-10-05T16:22:34.537Z,57.30
2022-10-05T16:25:09.125Z,56.15
2022-10-05T16:27:52.590Z,57.10
2022-10-05T16:30:23.206Z,55.77
2022-10-05T16:32:59.649Z,56.03
2022-10-05T16:35:36.387Z,56.25
2022-10-05T16:38:19.638Z,56.92
2022-10-05T16:41:01.916Z,56.72
2022-10-05T16:43:44.943Z,55.76
2022-10-05T16:46:22.328Z,56.17
2022-10-05T16:48:57.697Z,56.60
2022-10-05T16:51:32.436Z,57.33
2022-10-05T16:54:19.540Z,57.02
2022-10-05T16:56:52.589Z,56.85
2022-10-05T16:59:57.018Z,57.19
2022-10-05T17:02:37.773Z,57.73
2022-10-05T17:05:24.070Z,57.58
2022-10-05T17:08:18.041Z,57.70
2022-10-05T17:10:57.904Z,58.04
2022-10-05T17:13:57.057Z,58.18
2022-10-05T17:16:37.429Z,58.81
2022-10-05T17:19:26.722Z,59.33
2022-10-05T17:22:00.676Z,58.65
2022-10-05T17:24:46.054Z,59.56
2022-10-05T17:27:24.261Z,60.12
2022-10-05T17:29:53.602Z,60.34
2022-10-05T17:32:56.402Z,60.45
2022-10-05T17:35:43.638Z,60.28
2022-10-05T17:38:18.159Z,60.30
2022-10-05T17:41:16.376Z,59.72
2022-10-05T17:44:19.259Z,60.92
2022-10-05T17:46:50.307Z,61.47
2022-10-05T17:50:14.526Z,61.83
2022-10-05T17:53:02.371Z,61.56
2022-10-05T17:55:45.870Z,61.71
2022-10-05T17:59:02.654Z,62.69
2022-10-05T18:01:36.422Z,63.43
2022-10-05T18:04:42.387Z,62.79
2022-10-05T18:07:21.598Z,63.25
2022-10-05T18:09:58.451Z,63.04
2022-10-05T18:12:41.631Z,63.07
2022-10-05T18:15:48.689Z,63.91
2022-10-05T18:18:57.170Z,63.84
2022-10-05T18:21:39.149Z,64.47
2022-10-05T18:24:43.145Z,64.61
2022-10-05T18:27:52.331Z,64.25
2022-10-05T18:30:23.416Z,64.73
2022-10-05T18:33:21.490Z,65.01
2022-10-05T18:35:59.505Z,64.60
2022-10-05T18:38:38.086Z,65.19
2022-10-05T18:41:14.585Z,64.89
2022-10-05T18:43:53.207Z,65.50
2022-10-05T18:46:35.717Z,66.05
2022-10-05T18:49:32.210Z,66.41
2022-10-05T18:52:07.456Z,66.22
2022-10-05T18:54:50.956Z,66.26
2022-10-05T18:57:39.689Z,66.34
2022-10-05T19:00:14.485Z,65.88
2022-10-05T19:02:48.352Z,67.51
2022-10-05T19:05:46.854Z,66.47
2022-10-05T19:08:24.231Z,67.08
2022-10-05T19:10:58.540Z,66.90
2022-10-05T19:13:39.113Z,67.10
2022-10-05T19:16:25.450Z,66.79
2022-10-05T19:19:29.427Z,66.67
2022-10-05T19:22:02.171Z,66.50
2022-10-05T19:24:42.802Z,66.97
2022-10-05T19:27:21.321Z,66.90
2022-10-05T19:30:15.551Z,67.37
2022-10-05T19:33:05.851Z,67.41
2022-10-05T19:35:43.203Z,67.57
2022-10-05T19:38:22.747Z,68.51
2022-10-05T19:40:57.843Z,67.42
2022-10-05T19:43:43.376Z,67.63
2022-10-05T19:46:19.922Z,67.35
2022-10-05T19:48:50.031Z,66.83
2022-10-05T19:51:29.407Z,66.81
2022-10-05T19:54:01.262Z,67.54
2022-10-05T19:56:33.549Z,68.05
2022-10-05T19:59:14.148Z,67.57
2022-10-05T20:01:50.536Z,67.70
2022-10-05T20:04:34.452Z,67.79
2022-10-05T20:07:05.264Z,67.61
2022-10-05T20:09:55.055Z,68.35
2022-10-05T20:12:23.665Z,68.07
2022-10-05T20:15:35.454Z,68.35
2022-10-05T20:18:54.553Z,67.97
2022-10-05T20:21:45.702Z,68.57
2022-10-05T20:24:15.820Z,68.42
2022-10-05T20:27:06.027Z,68.17
2022-10-05T20:29:36.524Z,68.20
2022-10-05T20:32:08.715Z,68.94
2022-10-05T20:34:38.130Z,68.61
2022-10-05T20:37:05.993Z,68.43
2022-10-05T20:39:33.881Z,68.08
2022-10-05T20:42:01.759Z,68.65
2022-10-05T20:44:29.722Z,68.45
2022-10-05T20:46:58.480Z,68.06
2022-10-05T20:49:28.300Z,67.86
2022-10-05T20:51:56.667Z,68.60
2022-10-05T20:54:25.456Z,68.71
2022-10-05T20:56:54.897Z,67.92
2022-10-05T20:59:23.965Z,67.89
2022-10-05T21:01:51.975Z,68.64
2022-10-05T21:04:21.718Z,69.26
2022-10-05T21:06:51.818Z,68.82
2022-10-05T21:09:21.365Z,68.34
2022-10-05T21:11:52.894Z,68.60
2022-10-05T21:14:20.801Z,69.10
2022-10-05T21:16:48.739Z,68.79
2022-10-05T21:19:17.009Z,69.15
2022-10-05T21:21:46.213Z,68.65
2022-10-05T21:24:17.351Z,69.36
2022-10-05T21:26:45.979Z,68.67
2022-10-05T21:29:14.266Z,68.63
2022-10-05T21:31:42.449Z,68.74
2022-10-05T21:34:10.491Z,68.93
2022-10-05T21:36:38.382Z,68.57
2022-10-05T21:39:06.236Z,68.82
2022-10-05T21:41:35.473Z,69.11
2022-10-05T21:44:04.088Z,68.16
2022-10-05T21:46:31.984Z,68.09
2022-10-05T21:48:59.847Z,68.96
2022-10-05T21:51:28.443Z,69.41
2022-10-05T21:53:59.016Z,68.66
2022-10-05T21:56:32.214Z,68.78
2022-10-05T21:59:02.816Z,69.54
2022-10-05T22:01:31.253Z,68.68
2022-10-05T22:03:59.136Z,69.23
2022-10-05T22:06:26.983Z,69.49
2022-10-05T22:08:55.024Z,69.64
2022-10-05T22:11:23.044Z,69.26
2022-10-05T22:13:52.983Z,69.02
2022-10-05T22:16:25.296Z,69.47
2022-10-05T22:18:53.646Z,68.68
2022-10-05T22:21:22.131Z,69.32
2022-10-05T22:23:50.325Z,68.51
2022-10-05T22:26:21.700Z,68.65
2022-10-05T22:28:52.333Z,68.58
2022-10-05T22:31:20.343Z,68.61
2022-10-05T22:33:49.589Z,68.29
2022-10-05T22:36:17.662Z,69.35
2022-10-05T22:38:46.582Z,68.64
2022-10-05T22:41:16.479Z,68.78
2022-10-05T22:43:44.381Z,68.97
2022-10-05T22:46:13.301Z,69.64
2022-10-05T22:48:41.463Z,69.71
2022-10-05T22:51:10.920Z,69.38
2022-10-05T22:53:38.948Z,69.41
2022-10-05T22:56:08.564Z,70.18
2022-10-05T22:58:36.789Z,69.29
2022-10-05T23:01:06.289Z,71.24
2022-10-05T23:03:35.336Z,70.13
2022-10-05T23:06:05.501Z,70.02
2022-10-05T23:08:36.136Z,70.33
2022-10-05T23:11:05.052Z,70.95
2022-10-05T23:13:33.316Z,70.88
2022-10-05T23:16:07.163Z,70.74
2022-10-05T23:18:35.261Z,71.40
2022-10-05T23:21:03.374Z,70.69
2022-10-05T23:23:31.201Z,71.04
2022-10-05T23:26:03.436Z,71.21
2022-10-05T23:28:31.850Z,70.86
2022-10-05T23:31:00.882Z,71.38
2022-10-05T23:33:28.793Z,70.92
2022-10-05T23:36:00.530Z,71.05
2022-10-05T23:38:29.563Z,71.11
2022-10-05T23:40:58.565Z,71.59
2022-10-05T23:43:28.207Z,71.52
2022-10-05T23:45:56.759Z,72.13
2022-10-05T23:48:24.935Z,72.01
2022-10-05T23:50:53.801Z,71.86
2022-10-05T23:53:21.752Z,71.81
2022-10-05T23:55:51.648Z,71.64
2022-10-05T23:58:20.111Z,72.11
